Dixon, IL (61021)

11:46 PM CDT on July 06, 2015 (GMT -0500)
Lakewood Subdivision | | Change Station
CLOSE
Current Station
Personal Weather Station
Location: Dixon, IL
Elevation: 778 ft
Nearby Weather Stations

Elev 778 ft 41.87 °N, 89.51 °W | Updated 1 minute ago

Rain
Rain
69.8 °F
Feels Like 69.8 °F
N
3.0
Wind Variable Wind from SSW
Gusts 5.0 mph

Today
High -- | Low -- °F
--% Chance of Precip.
Yesterday
High -- | Low -- °F
Precip. -- in
5:29 AM 8:35 PM
Waning Gibbous, 69% visible
Pressure 29.85 in
Visibility 9.0 miles
Clouds Few 3900 ft
Mostly Cloudy 7500 ft
Overcast 8500 ft
Dew Point 68 °F
Humidity 95%
Rainfall 0.81 in
Snow Depth Not available.
UV 0 out of 12
Pollen 4.90 out of 12
Air Quality Not available.
Flu Activity Not available.
METAR KSQI 070435Z AUTO 25015G22KT 9SM FEW039 BKN075 OVC085 21/20 A2985 RMK AO1 P0001

More Conditions Fewer Conditions

Pressure 29.85 in
Visibility 9.0 miles
Clouds Few 3900 ft
Mostly Cloudy 7500 ft
Overcast 8500 ft
Dew Point 68 °F
Humidity 95%
Rainfall 0.81 in
Snow Depth Not available.
UV 0 out of 12
Pollen 4.90 out of 12
Air Quality Not available.
Flu Activity Not available.
METAR KSQI 070435Z AUTO 25015G22KT 9SM FEW039 BKN075 OVC085 21/20 A2985 RMK AO1 P0001

More Conditions Fewer Conditions

10-Day Weather Forecast

×

Almanac

Astronomy

Jul. 06, 2015 Rise Set
Actual Time
Civil Twilight
Nautical Twilight
Astronomical Twilight
Moon
Length of Visible Light
Length of Day
Tomorrow will be .
, % of the Moon is Illuminated

Today's Extremes

State Highs State Lows

Community

WunderPhotos

Upload Photos

1,835,728 photos uploaded!

WunderBlogs® & News

Nearby

Air Quality

  Air Quality AQ Index Pollutant
Not available.

Snow Depth

Station Depth Elevation

Earthquake Activity

City Distance Mag. Time & Date
Minimum magnitude displayed is 2.5.

Coastal Water Temperatures

Place Temperature

Stations

Nearby Weather Stations

Station Location Temp. Windchill Dew Point Humidity Wind Precip. Elev Updated Type